Time;durP1;ratioP1;P1;durP2;ratioP2;P2;SDS_P1;SDS_P2;PMS_P1;PMS_P2;Temp;Humidity;BMP_temperature;BMP_pressure;BME280_temperature;BME280_humidity;BME280_pressure;Samples;Min_cycle;Max_cycle;Signal;HPM_P1;HPM_P2
2023/08/20 00:01:28;;;;;;;7.72;4.13;;;22.00;99.90;;;;;;5092403;27;45211;-77
2023/08/20 00:03:56;;;;;;;5.78;3.80;;;22.00;99.90;;;;;;5099806;27;47072;-77
2023/08/20 00:06:24;;;;;;;7.63;4.57;;;22.00;99.90;;;;;;5099019;27;45277;-77
2023/08/20 00:08:51;;;;;;;8.48;4.75;;;22.00;99.90;;;;;;5096905;27;45155;-77
2023/08/20 00:11:19;;;;;;;6.85;4.50;;;22.00;99.90;;;;;;5101002;27;45269;-77
2023/08/20 00:13:46;;;;;;;7.22;4.70;;;22.10;99.90;;;;;;5101360;27;47288;-77
2023/08/20 00:16:13;;;;;;;7.38;4.55;;;22.10;99.90;;;;;;5096685;27;45167;-77
2023/08/20 00:18:41;;;;;;;10.75;4.53;;;22.10;99.90;;;;;;5095034;27;45111;-77
2023/08/20 00:21:09;;;;;;;9.40;4.38;;;22.00;99.90;;;;;;5095630;27;45352;-77
2023/08/20 00:23:36;;;;;;;8.13;4.45;;;22.10;99.90;;;;;;5098024;27;46313;-77
2023/08/20 00:26:04;;;;;;;7.65;4.50;;;22.10;99.90;;;;;;5098702;27;45346;-77
2023/08/20 00:28:33;;;;;;;7.97;4.40;;;22.10;99.90;;;;;;5094747;27;45315;-77
2023/08/20 00:31:00;;;;;;;8.48;4.97;;;22.10;99.90;;;;;;5105419;27;45113;-77
2023/08/20 00:33:27;;;;;;;10.30;4.65;;;22.10;99.90;;;;;;5105320;27;47518;-77
2023/08/20 00:35:53;;;;;;;7.25;4.43;;;22.10;99.90;;;;;;5099071;27;46162;-77
2023/08/20 00:38:20;;;;;;;9.45;4.13;;;22.10;99.90;;;;;;5101267;27;45156;-77
2023/08/20 00:40:47;;;;;;;8.50;4.70;;;22.10;99.90;;;;;;5099645;27;45256;-77
2023/08/20 00:43:14;;;;;;;9.75;4.35;;;22.10;99.90;;;;;;5101585;27;47028;-77
2023/08/20 00:45:43;;;;;;;8.25;4.43;;;22.10;99.90;;;;;;5102106;27;45381;-76
2023/08/20 00:48:12;;;;;;;6.25;4.40;;;22.10;99.90;;;;;;5098521;27;45124;-77
2023/08/20 00:50:39;;;;;;;8.32;4.63;;;22.00;99.90;;;;;;5093153;27;45097;-77
2023/08/20 00:53:06;;;;;;;7.90;4.35;;;22.00;99.90;;;;;;5095078;27;47914;-77
2023/08/20 00:55:33;;;;;;;6.78;3.97;;;21.90;99.90;;;;;;5090215;27;45156;-77
2023/08/20 00:58:01;;;;;;;8.60;4.15;;;21.90;99.90;;;;;;5097089;27;45173;-76
2023/08/20 01:00:27;;;;;;;11.38;4.18;;;21.90;99.90;;;;;;5098355;27;45065;-77
2023/08/20 01:02:56;;;;;;;5.57;3.67;;;21.90;99.90;;;;;;5099809;27;47526;-77
2023/08/20 01:05:23;;;;;;;8.68;4.03;;;21.80;99.90;;;;;;5091814;27;45287;-77
2023/08/20 01:08:05;;;;;;;4.95;3.50;;;21.80;99.90;;;;;;5103977;27;45257;-77
2023/08/20 01:10:40;;;;;;;5.10;3.88;;;21.80;99.90;;;;;;5093250;27;45404;-77
2023/08/20 01:13:09;;;;;;;7.72;3.75;;;21.80;99.90;;;;;;5096216;27;46507;-77
2023/08/20 01:15:35;;;;;;;8.50;3.85;;;21.80;99.90;;;;;;5098784;27;45097;-77
2023/08/20 01:18:04;;;;;;;6.40;3.88;;;21.80;99.90;;;;;;5101617;27;45196;-77
2023/08/20 01:20:37;;;;;;;10.15;3.60;;;21.70;99.90;;;;;;5099221;27;45386;-77
2023/08/20 01:23:33;;;;;;;5.57;3.83;;;21.80;99.90;;;;;;5099191;27;45442;-77
2023/08/20 01:26:16;;;;;;;9.95;4.03;;;21.70;99.90;;;;;;5101055;27;45298;-77
2023/08/20 01:28:45;;;;;;;4.40;3.22;;;21.70;99.90;;;;;;5104133;27;45156;-77
2023/08/20 01:31:14;;;;;;;7.43;3.75;;;21.70;99.90;;;;;;5102752;27;45283;-77
2023/08/20 01:33:41;;;;;;;6.95;4.40;;;21.70;99.90;;;;;;5101929;27;45270;-77
2023/08/20 01:36:10;;;;;;;10.20;3.78;;;21.70;99.90;;;;;;5106397;27;45066;-77
2023/08/20 01:38:37;;;;;;;6.03;4.05;;;21.70;99.90;;;;;;5108916;27;45129;-77
2023/08/20 01:41:04;;;;;;;6.75;4.13;;;21.70;99.90;;;;;;5107136;27;45156;-77
2023/08/20 01:43:31;;;;;;;8.55;4.60;;;21.70;99.90;;;;;;5106507;27;46177;-77
2023/08/20 01:45:59;;;;;;;7.93;4.53;;;21.70;99.90;;;;;;5092302;27;45414;-77
2023/08/20 01:48:26;;;;;;;14.40;4.85;;;21.70;99.90;;;;;;5105382;27;45272;-77
2023/08/20 01:50:53;;;;;;;8.43;4.78;;;21.60;99.90;;;;;;5106753;27;45337;-77
2023/08/20 01:53:20;;;;;;;7.85;4.70;;;21.60;99.90;;;;;;5106255;27;47453;-77
2023/08/20 01:55:47;;;;;;;9.68;4.85;;;21.60;99.90;;;;;;5105959;27;45258;-77
2023/08/20 01:58:13;;;;;;;13.38;5.47;;;21.60;99.90;;;;;;5097251;27;45223;-77
2023/08/20 02:00:40;;;;;;;8.90;5.20;;;21.60;99.90;;;;;;5107268;27;45349;-77
2023/08/20 02:03:08;;;;;;;10.43;4.78;;;21.60;99.90;;;;;;5107607;27;47105;-77
2023/08/20 02:05:35;;;;;;;7.50;5.00;;;21.60;99.90;;;;;;5108287;27;46253;-77
2023/08/20 02:08:02;;;;;;;9.25;4.97;;;21.60;99.90;;;;;;5107529;27;45119;-77
2023/08/20 02:10:29;;;;;;;9.80;4.75;;;21.60;99.90;;;;;;5102142;27;45188;-77
2023/08/20 02:12:55;;;;;;;7.82;4.70;;;21.60;99.90;;;;;;5093946;27;47328;-77
2023/08/20 02:15:22;;;;;;;9.55;4.70;;;21.60;99.90;;;;;;5090500;27;45180;-77
2023/08/20 02:17:49;;;;;;;7.47;4.35;;;21.70;99.90;;;;;;5094230;27;45228;-77
2023/08/20 02:20:17;;;;;;;7.00;4.80;;;21.70;99.90;;;;;;5105074;27;45105;-77
2023/08/20 02:22:44;;;;;;;9.65;4.90;;;21.70;99.90;;;;;;5098720;27;46405;-77
2023/08/20 02:25:11;;;;;;;13.88;5.35;;;21.70;99.90;;;;;;5107594;27;45173;-76
2023/08/20 02:27:37;;;;;;;9.95;5.70;;;21.60;99.90;;;;;;5106779;27;45140;-75
2023/08/20 02:30:05;;;;;;;12.48;5.43;;;21.50;99.90;;;;;;5098442;27;45297;-75
2023/08/20 02:32:33;;;;;;;10.23;5.65;;;21.50;99.90;;;;;;5103615;27;46446;-75
2023/08/20 02:35:00;;;;;;;11.25;6.63;;;21.20;99.90;;;;;;5107997;27;45095;-75
2023/08/20 02:37:28;;;;;;;13.10;5.63;;;21.20;99.90;;;;;;5096589;27;45319;-76
2023/08/20 02:39:55;;;;;;;12.73;5.90;;;21.00;99.90;;;;;;5087564;28;45127;-76
2023/08/20 02:42:22;;;;;;;12.38;6.03;;;21.10;99.90;;;;;;5098926;27;47334;-76
2023/08/20 02:44:48;;;;;;;12.55;5.65;;;21.10;99.90;;;;;;5098667;27;45243;-75
2023/08/20 02:47:15;;;;;;;12.02;5.82;;;21.00;99.90;;;;;;5090104;27;45343;-76
2023/08/20 02:49:42;;;;;;;11.32;5.70;;;21.00;99.90;;;;;;5090977;27;45200;-75
2023/08/20 02:52:09;;;;;;;10.82;5.93;;;21.00;99.90;;;;;;5107332;27;45406;-75
2023/08/20 02:54:37;;;;;;;12.18;5.70;;;21.00;99.90;;;;;;5104156;27;45595;-76
2023/08/20 02:57:04;;;;;;;12.68;6.30;;;21.10;99.90;;;;;;5102225;27;45229;-75
2023/08/20 02:59:31;;;;;;;10.68;6.28;;;21.10;99.90;;;;;;5096631;27;45221;-76
2023/08/20 03:01:57;;;;;;;13.55;6.30;;;21.10;99.90;;;;;;5106596;27;48148;-75
2023/08/20 03:04:24;;;;;;;14.88;6.75;;;21.10;99.90;;;;;;5106842;27;45230;-76
2023/08/20 03:06:51;;;;;;;14.52;7.20;;;21.10;99.90;;;;;;5103861;27;45247;-76
2023/08/20 03:09:18;;;;;;;10.68;7.30;;;21.10;99.90;;;;;;5100466;27;45322;-70
2023/08/20 03:11:46;;;;;;;13.82;7.18;;;21.20;99.90;;;;;;5088951;27;46325;-70
2023/08/20 03:14:13;;;;;;;13.32;6.72;;;21.20;99.90;;;;;;5084484;27;45239;-70
2023/08/20 03:16:39;;;;;;;12.68;6.72;;;21.30;99.90;;;;;;5100600;27;45086;-71
2023/08/20 03:19:06;;;;;;;15.43;6.40;;;21.30;99.90;;;;;;5089191;27;45212;-72
2023/08/20 03:21:33;;;;;;;13.70;8.00;;;21.30;99.90;;;;;;5083897;27;46385;-72
2023/08/20 03:24:00;;;;;;;12.23;7.13;;;21.20;99.90;;;;;;5091173;27;45105;-73
2023/08/20 03:26:26;;;;;;;12.02;7.25;;;21.20;99.90;;;;;;5093692;27;45238;-74
2023/08/20 03:28:55;;;;;;;11.35;7.13;;;21.20;99.90;;;;;;5094105;27;45482;-74
2023/08/20 03:31:21;;;;;;;15.02;7.68;;;21.20;99.90;;;;;;5090086;27;47683;-74
2023/08/20 03:33:49;;;;;;;17.00;9.32;;;21.10;99.90;;;;;;5099584;27;45800;-74
2023/08/20 03:36:16;;;;;;;14.52;7.43;;;21.10;99.90;;;;;;5102336;27;45254;-74
2023/08/20 03:38:43;;;;;;;16.73;8.30;;;21.10;99.90;;;;;;5097603;27;45406;-74
2023/08/20 03:41:10;;;;;;;13.43;8.45;;;21.10;99.90;;;;;;5100866;27;46375;-75
2023/08/20 03:43:37;;;;;;;13.50;8.40;;;21.00;99.90;;;;;;5089148;27;45211;-75
2023/08/20 03:46:05;;;;;;;17.38;8.20;;;21.00;99.90;;;;;;5091085;27;45499;-75
2023/08/20 03:48:31;;;;;;;12.93;8.00;;;21.00;99.90;;;;;;5104037;27;45267;-75
2023/08/20 03:50:58;;;;;;;18.55;8.10;;;21.00;99.90;;;;;;5103965;27;45129;-75
2023/08/20 03:53:25;;;;;;;13.10;7.95;;;21.10;99.90;;;;;;5100680;27;45306;-75
2023/08/20 03:55:52;;;;;;;13.18;7.90;;;21.10;99.90;;;;;;5102556;27;45170;-75
2023/08/20 03:58:19;;;;;;;12.75;7.30;;;21.20;99.90;;;;;;5103101;27;45311;-75
2023/08/20 04:00:46;;;;;;;13.27;7.80;;;21.30;99.90;;;;;;5103301;27;47014;-75
2023/08/20 04:03:14;;;;;;;15.13;8.25;;;21.40;99.90;;;;;;5087597;27;45172;-75
2023/08/20 04:05:41;;;;;;;15.30;7.97;;;21.40;99.90;;;;;;5088140;27;45234;-75
2023/08/20 04:08:08;;;;;;;13.82;7.70;;;21.40;99.90;;;;;;5099296;27;45316;-75
2023/08/20 04:10:34;;;;;;;14.32;7.57;;;21.40;99.90;;;;;;5091693;27;47665;-75
2023/08/20 04:13:01;;;;;;;11.48;7.20;;;21.40;99.90;;;;;;5099777;27;45131;-75
2023/08/20 04:15:28;;;;;;;12.70;7.13;;;21.40;99.90;;;;;;5106076;27;45148;-75
2023/08/20 04:17:55;;;;;;;12.48;7.25;;;21.40;99.90;;;;;;5104438;27;45295;-75
2023/08/20 04:20:23;;;;;;;12.18;6.88;;;21.40;99.90;;;;;;5103347;27;46385;-75
2023/08/20 04:22:50;;;;;;;14.98;7.53;;;21.40;99.90;;;;;;5097271;27;45943;-75
2023/08/20 04:25:17;;;;;;;13.88;7.97;;;21.40;99.90;;;;;;5097710;27;45130;-75
2023/08/20 04:27:44;;;;;;;13.10;7.57;;;21.40;99.90;;;;;;5107524;27;45260;-75
2023/08/20 04:30:12;;;;;;;11.68;7.05;;;21.40;99.90;;;;;;5103975;27;47297;-75
2023/08/20 04:32:38;;;;;;;11.85;7.43;;;21.40;99.90;;;;;;5093813;27;45770;-75
2023/08/20 04:35:06;;;;;;;15.40;7.80;;;21.40;99.90;;;;;;5097660;27;45253;-75
2023/08/20 04:37:34;;;;;;;13.55;7.10;;;21.40;99.90;;;;;;5099002;27;45265;-75
2023/08/20 04:40:01;;;;;;;12.38;6.78;;;21.40;99.90;;;;;;5093724;27;47477;-75
2023/08/20 04:42:28;;;;;;;12.25;7.18;;;21.30;99.90;;;;;;5096201;27;45171;-75
2023/08/20 04:44:54;;;;;;;13.27;7.25;;;21.30;99.90;;;;;;5097139;27;45136;-75
2023/08/20 04:47:21;;;;;;;10.00;6.65;;;21.30;99.90;;;;;;5094596;27;45260;-76
2023/08/20 04:49:48;;;;;;;13.07;6.43;;;21.30;99.90;;;;;;5092437;27;46410;-77
2023/08/20 04:52:15;;;;;;;11.38;6.70;;;21.30;99.90;;;;;;5104425;27;45300;-75
2023/08/20 04:54:43;;;;;;;13.73;8.00;;;21.30;99.90;;;;;;5104909;27;45211;-76
2023/08/20 04:57:09;;;;;;;13.75;7.03;;;21.30;99.90;;;;;;5104663;27;45107;-76
2023/08/20 04:59:36;;;;;;;13.23;8.02;;;21.20;99.90;;;;;;5101746;27;46101;-76
2023/08/20 05:02:03;;;;;;;10.63;6.75;;;21.20;99.90;;;;;;5099125;27;45463;-76
2023/08/20 05:04:30;;;;;;;11.60;7.45;;;21.20;99.90;;;;;;5095227;27;45207;-76
2023/08/20 05:06:56;;;;;;;9.65;7.13;;;21.20;99.90;;;;;;5101832;27;45309;-76
2023/08/20 05:09:23;;;;;;;9.98;6.88;;;21.20;99.90;;;;;;5096242;27;48155;-76
2023/08/20 05:11:51;;;;;;;13.38;7.32;;;21.20;99.90;;;;;;5100721;27;45115;-76
2023/08/20 05:14:18;;;;;;;12.98;7.13;;;21.20;99.90;;;;;;5104980;27;45262;-76
2023/08/20 05:16:45;;;;;;;14.10;7.35;;;21.20;99.90;;;;;;5103594;27;45366;-76
2023/08/20 05:19:12;;;;;;;13.63;6.95;;;21.20;99.90;;;;;;5088913;27;47491;-76
2023/08/20 05:21:38;;;;;;;11.80;7.32;;;21.20;99.90;;;;;;5104499;27;45361;-76
2023/08/20 05:24:06;;;;;;;11.88;6.97;;;21.30;99.90;;;;;;5096561;27;45334;-76
2023/08/20 05:26:33;;;;;;;10.63;6.80;;;21.30;99.90;;;;;;5098600;27;45320;-76
2023/08/20 05:29:01;;;;;;;12.00;7.07;;;21.30;99.90;;;;;;5099527;27;45248;-76
2023/08/20 05:31:28;;;;;;;11.05;6.75;;;21.40;99.90;;;;;;5097231;27;46071;-77
2023/08/20 05:33:54;;;;;;;11.32;6.90;;;21.40;99.90;;;;;;5101480;27;45345;-76
2023/08/20 05:36:21;;;;;;;12.55;6.93;;;21.40;99.90;;;;;;5101554;27;45059;-76
2023/08/20 05:38:48;;;;;;;17.45;7.10;;;21.40;99.90;;;;;;5097051;27;47022;-76
2023/08/20 05:41:15;;;;;;;12.07;7.15;;;21.40;99.90;;;;;;5098684;27;45121;-76
2023/08/20 05:43:42;;;;;;;17.02;7.63;;;21.40;99.90;;;;;;5107892;27;45191;-76
2023/08/20 05:46:10;;;;;;;14.57;7.47;;;21.40;99.90;;;;;;5103898;27;45026;-76
2023/08/20 05:48:37;;;;;;;12.80;7.85;;;21.40;99.90;;;;;;5105134;27;46516;-76
2023/08/20 05:51:03;;;;;;;16.10;8.73;;;21.30;99.90;;;;;;5089671;27;45320;-76
2023/08/20 05:53:30;;;;;;;13.93;7.70;;;21.20;99.90;;;;;;5099622;27;45278;-76
2023/08/20 05:55:57;;;;;;;12.27;8.68;;;21.20;99.90;;;;;;5098678;27;45108;-76
2023/08/20 05:58:24;;;;;;;19.25;8.65;;;21.20;99.90;;;;;;5099502;27;46328;-76
2023/08/20 06:00:50;;;;;;;19.48;8.23;;;21.20;99.90;;;;;;5104501;27;45229;-76
2023/08/20 06:03:18;;;;;;;16.60;9.15;;;21.20;99.90;;;;;;5094117;27;45343;-76
2023/08/20 06:05:45;;;;;;;16.48;8.05;;;21.20;99.90;;;;;;5098370;27;45123;-70
2023/08/20 06:08:12;;;;;;;18.05;8.27;;;21.20;99.90;;;;;;5097195;27;47292;-70
2023/08/20 06:10:39;;;;;;;14.32;7.88;;;21.30;99.90;;;;;;5098934;27;45215;-71
2023/08/20 06:13:05;;;;;;;14.32;8.50;;;21.40;99.90;;;;;;5090343;27;45202;-71
2023/08/20 06:15:32;;;;;;;15.27;7.93;;;21.40;99.90;;;;;;5093134;27;45229;-71
2023/08/20 06:17:59;;;;;;;11.98;7.43;;;21.40;99.90;;;;;;5097225;27;46246;-72
2023/08/20 06:20:27;;;;;;;17.23;8.13;;;21.40;99.90;;;;;;5087863;27;45274;-72
2023/08/20 06:22:54;;;;;;;14.60;8.25;;;21.40;99.90;;;;;;5085873;27;45271;-72
2023/08/20 06:25:20;;;;;;;11.80;7.40;;;21.40;99.90;;;;;;5097453;27;45153;-74
2023/08/20 06:27:47;;;;;;;16.35;8.30;;;21.50;99.90;;;;;;5099599;27;46641;-74
2023/08/20 06:30:14;;;;;;;16.42;8.15;;;21.50;99.90;;;;;;5094937;27;45767;-74
2023/08/20 06:32:41;;;;;;;15.88;7.88;;;21.50;99.90;;;;;;5095869;27;45279;-74
2023/08/20 06:35:10;;;;;;;16.60;8.85;;;21.50;99.90;;;;;;5091651;27;45110;-74
2023/08/20 06:37:40;;;;;;;14.45;7.93;;;21.50;99.90;;;;;;5096677;27;48162;-74
2023/08/20 06:40:08;;;;;;;15.10;8.38;;;21.40;99.90;;;;;;5092127;27;45315;-74
2023/08/20 06:42:35;;;;;;;18.00;8.75;;;21.40;99.90;;;;;;5091949;27;45377;-73
2023/08/20 06:45:02;;;;;;;14.30;8.52;;;21.40;99.90;;;;;;5098127;27;45154;-71
2023/08/20 06:47:28;;;;;;;18.13;9.48;;;21.40;99.90;;;;;;5093127;27;45144;-70
2023/08/20 06:49:55;;;;;;;13.80;8.70;;;21.40;99.90;;;;;;5091241;27;45312;-70
2023/08/20 06:52:22;;;;;;;13.05;8.80;;;21.40;99.90;;;;;;5095260;27;45242;-70
2023/08/20 06:54:50;;;;;;;17.02;10.77;;;21.40;99.90;;;;;;5084558;27;45240;-70
2023/08/20 06:57:17;;;;;;;19.85;9.70;;;21.40;99.90;;;;;;5094141;27;47012;-70
2023/08/20 06:59:43;;;;;;;19.40;9.98;;;21.40;99.90;;;;;;5097218;27;45236;-70
2023/08/20 07:02:10;;;;;;;15.73;8.80;;;21.40;99.90;;;;;;5090074;27;45270;-70
2023/08/20 07:04:37;;;;;;;16.05;8.63;;;21.40;99.90;;;;;;5100199;27;45362;-70
2023/08/20 07:07:05;;;;;;;19.27;10.35;;;21.60;99.90;;;;;;5103759;27;46511;-71
2023/08/20 07:09:32;;;;;;;17.40;10.68;;;21.60;99.90;;;;;;5101934;27;45207;-71
2023/08/20 07:12:00;;;;;;;15.95;9.57;;;21.60;99.90;;;;;;5086285;27;45205;-69
2023/08/20 07:14:27;;;;;;;17.15;8.80;;;21.40;99.90;;;;;;5099269;27;45130;-70
2023/08/20 07:16:54;;;;;;;18.77;9.48;;;21.60;99.90;;;;;;5095865;27;45265;-70
2023/08/20 07:19:21;;;;;;;12.88;7.75;;;21.70;99.90;;;;;;5094929;27;45690;-70
2023/08/20 07:21:47;;;;;;;16.45;10.15;;;21.80;99.90;;;;;;5088586;27;45237;-70
2023/08/20 07:24:14;;;;;;;22.33;10.60;;;21.80;99.90;;;;;;5092228;27;45380;-71
2023/08/20 07:26:42;;;;;;;20.60;11.35;;;21.60;99.90;;;;;;5098604;27;45243;-70
2023/08/20 07:29:10;;;;;;;17.48;9.13;;;21.60;99.90;;;;;;5088241;27;45226;-70
2023/08/20 07:31:36;;;;;;;17.70;9.57;;;21.60;99.90;;;;;;5089168;27;45449;-70
2023/08/20 07:34:04;;;;;;;14.30;8.95;;;21.80;99.90;;;;;;5094889;27;45298;-71
2023/08/20 07:36:31;;;;;;;17.73;9.10;;;21.90;99.90;;;;;;5093730;27;46170;-72
2023/08/20 07:38:58;;;;;;;14.30;8.40;;;21.90;99.90;;;;;;5085189;27;45245;-73
2023/08/20 07:41:25;;;;;;;18.98;8.70;;;22.00;99.90;;;;;;5085960;27;45392;-72
2023/08/20 07:43:52;;;;;;;17.25;10.23;;;22.00;99.90;;;;;;5088985;27;45056;-72
2023/08/20 07:46:20;;;;;;;17.42;9.80;;;22.00;99.90;;;;;;5094623;27;46516;-73
2023/08/20 07:48:47;;;;;;;16.88;10.77;;;21.80;99.90;;;;;;5085114;27;45297;-70
2023/08/20 07:51:14;;;;;;;15.63;9.73;;;21.80;99.90;;;;;;5086221;27;45238;-69
2023/08/20 07:53:41;;;;;;;18.02;8.80;;;21.80;99.90;;;;;;5084118;27;45106;-70
2023/08/20 07:56:08;;;;;;;15.23;9.05;;;21.80;99.90;;;;;;5087863;27;48106;-70
2023/08/20 07:58:35;;;;;;;21.38;12.35;;;21.80;99.90;;;;;;5098854;27;45240;-71
2023/08/20 08:01:02;;;;;;;20.13;10.50;;;21.80;99.90;;;;;;5093779;27;45381;-72
2023/08/20 08:03:30;;;;;;;24.80;10.85;;;21.80;99.90;;;;;;5093249;27;45277;-70
2023/08/20 08:05:57;;;;;;;21.88;11.32;;;21.80;99.90;;;;;;5096134;27;47607;-69
2023/08/20 08:08:24;;;;;;;18.17;10.68;;;22.00;99.90;;;;;;5090863;27;45149;-69
2023/08/20 08:10:51;;;;;;;18.52;9.57;;;22.10;99.90;;;;;;5096454;27;45526;-68
2023/08/20 08:13:21;;;;;;;13.57;9.20;;;22.20;99.90;;;;;;5098163;27;46577;-69
2023/08/20 08:15:47;;;;;;;16.63;8.88;;;22.20;99.90;;;;;;5094898;27;45479;-69
2023/08/20 08:18:14;;;;;;;12.02;7.53;;;22.20;99.90;;;;;;5106145;27;45183;-68
2023/08/20 08:20:42;;;;;;;17.90;10.93;;;22.30;99.90;;;;;;5082539;27;45274;-69
2023/08/20 08:23:09;;;;;;;22.83;11.70;;;22.30;99.90;;;;;;5091643;27;45158;-69
2023/08/20 08:25:37;;;;;;;27.88;13.40;;;22.40;99.90;;;;;;5091087;27;46250;-69
2023/08/20 08:28:04;;;;;;;17.90;10.85;;;22.40;99.90;;;;;;5084197;27;45206;-70
2023/08/20 08:30:31;;;;;;;18.17;10.20;;;22.40;99.90;;;;;;5084007;27;45194;-70
2023/08/20 08:32:57;;;;;;;16.50;9.77;;;22.40;99.90;;;;;;5083248;27;45111;-70
2023/08/20 08:35:24;;;;;;;18.25;11.45;;;22.40;99.90;;;;;;5100072;27;47652;-70
2023/08/20 08:37:52;;;;;;;16.20;10.60;;;22.50;99.90;;;;;;5091578;27;45986;-70
2023/08/20 08:40:19;;;;;;;13.70;9.20;;;22.50;99.90;;;;;;5085520;27;45217;-71
2023/08/20 08:42:50;;;;;;;17.65;9.68;;;22.40;99.90;;;;;;5094736;27;45417;-71
2023/08/20 08:45:19;;;;;;;14.90;9.15;;;22.40;99.90;;;;;;5091000;27;48223;-71
2023/08/20 08:47:46;;;;;;;14.80;9.68;;;22.40;99.90;;;;;;5089393;27;45202;-71
2023/08/20 08:50:13;;;;;;;17.05;9.00;;;22.40;99.90;;;;;;5082410;27;45118;-71
2023/08/20 08:52:41;;;;;;;17.67;10.48;;;22.50;99.90;;;;;;5083034;27;45268;-71
2023/08/20 08:55:09;;;;;;;17.55;11.07;;;22.50;99.90;;;;;;5083205;27;47199;-71
2023/08/20 08:57:37;;;;;;;18.30;11.32;;;22.50;99.90;;;;;;5085732;27;45239;-71
2023/08/20 09:00:04;;;;;;;18.67;10.43;;;22.60;99.90;;;;;;5083158;27;45325;-71
2023/08/20 09:02:31;;;;;;;17.63;10.07;;;22.60;99.90;;;;;;5090803;27;45175;-72
2023/08/20 09:04:59;;;;;;;19.63;9.85;;;22.60;99.90;;;;;;5083007;27;46360;-72
2023/08/20 09:07:25;;;;;;;17.58;8.95;;;22.60;99.90;;;;;;5090049;27;45101;-72
2023/08/20 09:09:59;;;;;;;17.70;10.32;;;22.70;99.90;;;;;;5086985;27;45125;-72
2023/08/20 09:12:27;;;;;;;16.35;10.30;;;22.70;99.90;;;;;;5091365;27;45171;-71
2023/08/20 09:14:57;;;;;;;16.70;9.32;;;22.70;99.90;;;;;;5085518;27;48318;-72
2023/08/20 09:17:27;;;;;;;11.20;7.22;;;22.70;99.90;;;;;;5091546;27;45136;-72
2023/08/20 09:19:56;;;;;;;15.95;9.15;;;22.70;99.90;;;;;;5094851;27;45129;-71
2023/08/20 09:22:23;;;;;;;7.78;6.05;;;22.80;99.90;;;;;;5088347;27;45175;-72
2023/08/20 09:24:54;;;;;;;13.73;7.72;;;22.70;99.90;;;;;;5082540;27;46304;-72
2023/08/20 09:27:21;;;;;;;22.13;12.07;;;22.70;99.90;;;;;;5091251;27;45312;-69
2023/08/20 09:29:51;;;;;;;20.20;11.68;;;22.80;99.90;;;;;;5091029;27;45051;-69
2023/08/20 09:32:19;;;;;;;15.20;10.02;;;22.90;99.90;;;;;;5092621;27;45327;-69
2023/08/20 09:34:46;;;;;;;13.02;7.38;;;22.90;99.90;;;;;;5082465;27;45286;-69
2023/08/20 09:37:14;;;;;;;10.85;7.38;;;22.80;99.90;;;;;;5083698;27;45817;-70
2023/08/20 09:39:42;;;;;;;13.88;8.30;;;22.80;99.90;;;;;;5092102;27;45135;-70
2023/08/20 09:42:10;;;;;;;17.20;8.80;;;22.90;99.90;;;;;;5086087;27;45257;-71
2023/08/20 09:44:38;;;;;;;16.02;8.65;;;22.90;99.90;;;;;;5094648;27;47105;-70
2023/08/20 09:47:09;;;;;;;16.17;7.88;;;22.90;99.90;;;;;;5089573;27;45356;-71
2023/08/20 09:49:39;;;;;;;9.68;6.55;;;23.00;99.90;;;;;;5091828;27;45240;-71
2023/08/20 09:52:07;;;;;;;11.85;7.68;;;22.80;99.90;;;;;;5099935;27;45414;-72
2023/08/20 09:54:43;;;;;;;10.85;6.10;;;22.80;99.90;;;;;;5086915;27;48160;-71
2023/08/20 09:57:20;;;;;;;9.77;5.35;;;22.90;99.90;;;;;;5086061;27;45210;-71
2023/08/20 09:59:48;;;;;;;7.38;4.68;;;22.90;99.90;;;;;;5098200;27;45244;-72
2023/08/20 10:02:16;;;;;;;7.72;4.63;;;22.90;99.90;;;;;;5093319;27;45539;-72
2023/08/20 10:04:44;;;;;;;7.38;4.22;;;23.00;99.90;;;;;;5085613;27;45272;-72
2023/08/20 10:07:13;;;;;;;11.95;5.63;;;23.00;99.90;;;;;;5088610;27;45650;-72
2023/08/20 10:09:40;;;;;;;9.40;5.57;;;23.00;99.90;;;;;;5089247;27;45328;-72
2023/08/20 10:12:08;;;;;;;8.10;5.25;;;23.10;99.90;;;;;;5087640;27;45266;-72
2023/08/20 10:14:35;;;;;;;8.48;4.40;;;23.10;99.90;;;;;;5093657;27;45446;-72
2023/08/20 10:17:08;;;;;;;8.60;5.35;;;23.00;99.90;;;;;;5100307;27;45093;-73
2023/08/20 10:19:37;;;;;;;9.82;4.93;;;23.00;99.90;;;;;;5087129;27;45213;-72
2023/08/20 10:22:04;;;;;;;5.72;4.53;;;23.00;99.90;;;;;;5091427;27;45157;-72
2023/08/20 10:24:42;;;;;;;5.10;3.53;;;23.00;99.90;;;;;;5094170;27;46841;-72
2023/08/20 10:27:10;;;;;;;10.70;5.47;;;23.00;99.90;;;;;;5090106;27;45225;-73
2023/08/20 10:29:41;;;;;;;9.27;4.95;;;22.90;99.90;;;;;;5104183;27;45285;-73
2023/08/20 10:32:10;;;;;;;10.10;5.28;;;22.90;99.90;;;;;;5088877;27;45361;-73
2023/08/20 10:34:40;;;;;;;8.60;5.75;;;23.00;99.90;;;;;;5084516;27;46210;-73
2023/08/20 10:37:10;;;;;;;8.20;5.38;;;23.00;99.90;;;;;;5099705;27;45470;-73
2023/08/20 10:39:37;;;;;;;6.97;4.78;;;23.10;99.90;;;;;;5103359;27;45130;-73
2023/08/20 10:42:25;;;;;;;6.25;4.13;;;23.00;99.90;;;;;;5089918;27;45168;-73
2023/08/20 10:45:03;;;;;;;12.95;5.13;;;22.90;99.90;;;;;;5085227;27;47279;-73
2023/08/20 10:47:38;;;;;;;8.75;5.15;;;23.00;99.90;;;;;;5091528;27;45207;-72
2023/08/20 10:50:10;;;;;;;14.35;7.40;;;22.90;99.90;;;;;;5090789;27;45296;-72
2023/08/20 10:52:40;;;;;;;14.10;6.97;;;22.90;99.90;;;;;;5096990;27;45291;-73
2023/08/20 10:55:09;;;;;;;18.65;7.28;;;23.10;99.90;;;;;;5085568;27;45392;-73
2023/08/20 10:57:36;;;;;;;11.35;6.22;;;23.20;99.90;;;;;;5094647;27;45242;-73
2023/08/20 11:00:11;;;;;;;10.15;6.20;;;23.20;99.90;;;;;;5090959;27;45110;-73
2023/08/20 11:02:38;;;;;;;10.77;5.90;;;23.20;99.90;;;;;;5096058;27;45439;-73
2023/08/20 11:05:17;;;;;;;9.23;5.78;;;23.20;99.90;;;;;;5090935;27;47492;-73
2023/08/20 11:07:47;;;;;;;6.38;4.85;;;23.20;99.90;;;;;;5086948;27;45939;-73
2023/08/20 11:10:15;;;;;;;8.35;5.50;;;23.10;99.90;;;;;;5098064;27;45191;-73
2023/08/20 11:12:42;;;;;;;6.82;4.90;;;22.90;99.90;;;;;;5084547;27;45616;-73
2023/08/20 11:15:10;;;;;;;8.38;5.80;;;22.90;99.90;;;;;;5101562;27;48143;-73
2023/08/20 11:17:42;;;;;;;8.82;5.68;;;22.80;99.90;;;;;;5087679;27;45286;-73
2023/08/20 11:20:12;;;;;;;7.82;5.50;;;22.90;99.90;;;;;;5097309;27;45310;-73
2023/08/20 11:22:40;;;;;;;8.68;4.68;;;22.90;99.90;;;;;;5088079;27;45415;-73
2023/08/20 11:25:10;;;;;;;8.07;5.97;;;22.90;99.90;;;;;;5096964;27;45174;-73
2023/08/20 11:27:40;;;;;;;6.72;4.85;;;22.90;99.90;;;;;;5085908;27;45157;-72
2023/08/20 11:30:09;;;;;;;9.80;6.22;;;22.90;99.90;;;;;;5098069;27;45249;-73
2023/08/20 11:32:36;;;;;;;7.88;5.65;;;22.80;99.90;;;;;;5085647;27;45157;-73
2023/08/20 11:35:05;;;;;;;8.95;5.78;;;22.80;99.90;;;;;;5091118;27;47732;-73
2023/08/20 11:37:33;;;;;;;11.45;6.57;;;22.90;99.90;;;;;;5084132;27;45266;-73
2023/08/20 11:40:00;;;;;;;7.47;5.40;;;23.00;99.90;;;;;;5098318;27;45244;-73
2023/08/20 11:42:27;;;;;;;9.35;5.63;;;23.20;99.90;;;;;;5088845;27;45233;-73
2023/08/20 11:44:56;;;;;;;9.23;5.28;;;23.20;99.90;;;;;;5095464;27;47451;-73
2023/08/20 11:47:23;;;;;;;8.90;4.63;;;23.20;99.90;;;;;;5100736;27;45062;-73
2023/08/20 11:50:03;;;;;;;6.63;4.82;;;23.20;99.90;;;;;;5087724;27;45157;-73
2023/08/20 11:52:33;;;;;;;8.43;6.18;;;23.10;99.90;;;;;;5104397;27;45143;-73
2023/08/20 11:55:00;;;;;;;9.52;6.55;;;23.10;99.90;;;;;;5094679;27;46208;-73
2023/08/20 11:57:29;;;;;;;7.60;5.90;;;23.10;99.90;;;;;;5086924;27;45268;-73
2023/08/20 11:59:56;;;;;;;9.45;5.88;;;22.90;99.90;;;;;;5104810;27;45066;-73
2023/08/20 12:02:26;;;;;;;9.25;5.95;;;23.00;99.90;;;;;;5095422;27;45390;-73
2023/08/20 12:04:56;;;;;;;8.57;6.05;;;23.10;99.90;;;;;;5091568;27;47505;-73
2023/08/20 12:07:27;;;;;;;12.85;5.63;;;23.20;99.90;;;;;;5086454;27;45175;-74
2023/08/20 12:09:56;;;;;;;10.93;6.28;;;23.20;99.90;;;;;;5084179;27;45162;-74
2023/08/20 12:12:23;;;;;;;7.82;5.10;;;23.20;99.90;;;;;;5092219;27;45325;-73
2023/08/20 12:14:50;;;;;;;7.50;6.10;;;23.30;99.90;;;;;;5083873;27;47663;-73
2023/08/20 12:17:18;;;;;;;9.90;6.63;;;23.00;99.90;;;;;;5091255;27;45114;-73
2023/08/20 12:19:45;;;;;;;11.10;6.60;;;23.00;99.90;;;;;;5084420;27;45185;-73
2023/08/20 12:22:12;;;;;;;10.38;7.50;;;22.90;99.90;;;;;;5093970;27;45111;-73
2023/08/20 12:24:39;;;;;;;9.52;7.00;;;22.90;99.90;;;;;;5102865;27;47639;-73
2023/08/20 12:27:07;;;;;;;8.50;6.80;;;22.80;99.90;;;;;;5083718;27;45169;-73
2023/08/20 12:29:34;;;;;;;9.02;6.88;;;22.80;99.90;;;;;;5084892;27;45174;-73
2023/08/20 12:32:03;;;;;;;8.38;5.43;;;22.80;99.90;;;;;;5098251;27;45153;-73
2023/08/20 12:34:31;;;;;;;8.77;6.68;;;23.00;99.90;;;;;;5084081;27;45406;-74
2023/08/20 12:36:57;;;;;;;10.77;6.13;;;23.20;99.90;;;;;;5098533;27;45178;-73
2023/08/20 12:39:24;;;;;;;10.25;5.97;;;23.10;99.90;;;;;;5094061;27;45144;-73
2023/08/20 12:41:51;;;;;;;10.20;6.18;;;23.20;99.90;;;;;;5100150;27;45098;-73